PWSweather.com
Personal Weather Stations
Station Observations
JEDRZEJOW
Kielce, JedrzejowPL 28-300

KielceJedrzejowPL 28-300

Lat: 50.64416885, Lon: 20.30450058

Elevation: 790

Station Type: WH1080

Latest ConditionsUpdated 6:00:00 PM GMT+01:01 Sunday, Sep 23, 2018
Currently Today's Max Today's Min Today's Average
Temperature 57.6°F14.2°C 65.5°F18.6°C 49.5°F9.7°C 56.8°F13.8°C
Dew Point 49.0°F9.4°C 49.0°F9.4°C 41.1°F5.1°C 44.6°F7.0°C
Winds 4.6 mph S7.4 kmh S 10.4 mph -16.7 kmh - - 5.1 mph 8.2 kmh
Wind Gusts 9.2 mph14.8 kmh 18.3 mph29.5 kmh - -
Humidity 73% 82% 42% 65%
Pressure 29.79 in1008.8 mb 30.09 in1019.0 mb 29.79 in1008.8 mb -
Precipitation - 0.01 in0.3 mm - -
Hour Temp Dew Point Humidity Winds Wind Gusts Pressure Precip Precip Rate Daily Precip Total
06:00 PM 57.6°F14.2°C 49.0°F9.4°C 73% 4.6 mph S7.4 kmh S 9.2 mph14.8 kmh 29.79 in1008.8 mb 0.01 in0.3 mm 0.01 in0.3 mm 0.01 in0.3 mm
05:45 PM 59.2°F15.1°C 47.0°F8.3°C 64% 5.0 mph S8.0 kmh S 9.2 mph14.8 kmh 29.80 in1009.1 mb 0.00 in0.0 mm 0.00 in0.0 mm 0.00 in0.0 mm
05:30 PM 59.5°F15.3°C 46.5°F8.1°C 62% 4.7 mph S7.6 kmh S 8.3 mph13.4 kmh 29.81 in1009.5 mb 0.00 in0.0 mm 0.00 in0.0 mm 0.00 in0.0 mm
05:15 PM 59.7°F15.4°C 46.2°F7.9°C 61% 5.2 mph S8.4 kmh S 9.2 mph14.8 kmh 29.83 in1010.2 mb 0.00 in0.0 mm 0.00 in0.0 mm 0.00 in0.0 mm
05:00 PM 59.9°F15.5°C 46.0°F7.8°C 60% 4.6 mph S7.4 kmh S 10.7 mph17.2 kmh 29.84 in1010.5 mb 0.00 in0.0 mm 0.00 in0.0 mm 0.00 in0.0 mm
04:45 PM 60.1°F15.6°C 45.7°F7.6°C 59% 3.7 mph SSE6.0 kmh SSE 6.9 mph11.1 kmh 29.85 in1010.8 mb 0.00 in0.0 mm 0.00 in0.0 mm 0.00 in0.0 mm
04:30 PM 60.4°F15.8°C 45.1°F7.3°C 57% 3.8 mph SSW6.1 kmh SSW 8.3 mph13.4 kmh 29.87 in1011.5 mb 0.00 in0.0 mm 0.00 in0.0 mm 0.00 in0.0 mm
04:15 PM 60.4°F15.8°C 44.7°F7.1°C 56% 5.3 mph S8.5 kmh S 11.4 mph18.3 kmh 29.88 in1011.9 mb 0.00 in0.0 mm 0.00 in0.0 mm 0.00 in0.0 mm
04:00 PM 60.4°F15.8°C 44.7°F7.1°C 56% 6.6 mph SSW10.6 kmh SSW 12.1 mph19.5 kmh 29.90 in1012.5 mb 0.00 in0.0 mm 0.00 in0.0 mm 0.00 in0.0 mm
03:45 PM 60.3°F15.7°C 44.5°F6.9°C 56% 5.2 mph SSW8.4 kmh SSW 10.7 mph17.2 kmh 29.90 in1012.5 mb 0.00 in0.0 mm 0.00 in0.0 mm 0.00 in0.0 mm
03:30 PM 60.1°F15.6°C 43.9°F6.6°C 55% 5.2 mph SW8.4 kmh SW 10.7 mph17.2 kmh 29.92 in1013.2 mb 0.00 in0.0 mm 0.00 in0.0 mm 0.00 in0.0 mm
03:15 PM 60.4°F15.8°C 43.7°F6.5°C 54% 6.6 mph SW10.6 kmh SW 14.5 mph23.3 kmh 29.92 in1013.2 mb 0.00 in0.0 mm 0.00 in0.0 mm 0.00 in0.0 mm
03:00 PM 60.6°F15.9°C 43.4°F6.3°C 53% 9.3 mph SW15.0 kmh SW 16.8 mph27.0 kmh 29.93 in1013.5 mb 0.00 in0.0 mm 0.00 in0.0 mm 0.00 in0.0 mm
02:45 PM 61.0°F16.1°C 43.2°F6.2°C 52% 8.4 mph SW13.5 kmh SW 15.2 mph24.5 kmh 29.94 in1013.9 mb 0.00 in0.0 mm 0.00 in0.0 mm 0.00 in0.0 mm
02:30 PM 61.5°F16.4°C 43.2°F6.2°C 51% 8.4 mph WSW13.5 kmh WSW 16.8 mph27.0 kmh 29.95 in1014.2 mb 0.00 in0.0 mm 0.00 in0.0 mm 0.00 in0.0 mm
02:15 PM 62.2°F16.8°C 43.4°F6.3°C 50% 6.5 mph WSW10.5 kmh WSW 13.0 mph20.9 kmh 29.96 in1014.6 mb 0.00 in0.0 mm 0.00 in0.0 mm 0.00 in0.0 mm
02:00 PM 62.6°F17.0°C 44.2°F6.8°C 51% 6.4 mph SW10.3 kmh SW 12.1 mph19.5 kmh 29.96 in1014.6 mb 0.00 in0.0 mm 0.00 in0.0 mm 0.00 in0.0 mm
01:45 PM 62.6°F17.0°C 43.7°F6.5°C 50% 8.1 mph SW13.0 kmh SW 16.8 mph27.0 kmh 29.97 in1014.9 mb 0.00 in0.0 mm 0.00 in0.0 mm 0.00 in0.0 mm
01:30 PM 63.0°F17.2°C 44.0°F6.7°C 50% 8.0 mph SW12.9 kmh SW 13.6 mph21.9 kmh 29.97 in1014.9 mb 0.00 in0.0 mm 0.00 in0.0 mm 0.00 in0.0 mm
01:15 PM 63.1°F17.3°C 43.7°F6.5°C 49% 8.7 mph SW14.0 kmh SW 15.9 mph25.6 kmh 29.98 in1015.2 mb 0.00 in0.0 mm 0.00 in0.0 mm 0.00 in0.0 mm
01:00 PM 63.1°F17.3°C 43.7°F6.5°C 49% 9.1 mph WSW14.6 kmh WSW 16.8 mph27.0 kmh 29.98 in1015.2 mb 0.00 in0.0 mm 0.00 in0.0 mm 0.00 in0.0 mm
12:45 PM 63.1°F17.3°C 42.6°F5.9°C 47% 9.2 mph SW14.8 kmh SW 15.2 mph24.5 kmh 29.98 in1015.2 mb 0.00 in0.0 mm 0.00 in0.0 mm 0.00 in0.0 mm
12:30 PM 65.5°F18.6°C 41.8°F5.4°C 42% 8.0 mph SW12.9 kmh SW 15.9 mph25.6 kmh 29.99 in1015.6 mb 0.00 in0.0 mm 0.00 in0.0 mm 0.00 in0.0 mm
12:15 PM 64.0°F17.8°C 41.1°F5.1°C 43% 10.4 mph SW16.7 kmh SW 18.3 mph29.5 kmh 29.99 in1015.6 mb 0.00 in0.0 mm 0.00 in0.0 mm 0.00 in0.0 mm
12:00 PM 63.3°F17.4°C 44.4°F6.9°C 50% 7.6 mph SW12.2 kmh SW 15.9 mph25.6 kmh 29.99 in1015.6 mb 0.00 in0.0 mm 0.00 in0.0 mm 0.00 in0.0 mm
11:45 AM 62.8°F17.1°C 42.8°F6.0°C 48% 10.4 mph SW16.7 kmh SW 18.3 mph29.5 kmh 30.01 in1016.3 mb 0.00 in0.0 mm 0.00 in0.0 mm 0.00 in0.0 mm
11:30 AM 61.9°F16.6°C 44.1°F6.7°C 52% 7.4 mph WSW11.9 kmh WSW 16.8 mph27.0 kmh 30.02 in1016.6 mb 0.00 in0.0 mm 0.00 in0.0 mm 0.00 in0.0 mm
11:15 AM 61.0°F16.1°C 42.7°F5.9°C 51% 7.9 mph W12.7 kmh W 14.5 mph23.3 kmh 30.02 in1016.6 mb 0.00 in0.0 mm 0.00 in0.0 mm 0.00 in0.0 mm
11:00 AM 60.6°F15.9°C 42.4°F5.8°C 51% 8.5 mph SW13.7 kmh SW 15.9 mph25.6 kmh 30.02 in1016.6 mb 0.00 in0.0 mm 0.00 in0.0 mm 0.00 in0.0 mm
10:45 AM 61.3°F16.3°C 42.0°F5.6°C 49% 7.2 mph SW11.6 kmh SW 13.6 mph21.9 kmh 30.02 in1016.6 mb 0.00 in0.0 mm 0.00 in0.0 mm 0.00 in0.0 mm
10:30 AM 64.0°F17.8°C 41.7°F5.4°C 44% 7.5 mph SW12.1 kmh SW 12.1 mph19.5 kmh 30.02 in1016.6 mb 0.00 in0.0 mm 0.00 in0.0 mm 0.00 in0.0 mm
10:15 AM 63.9°F17.7°C 43.8°F6.6°C 48% 8.1 mph WSW13.0 kmh WSW 15.2 mph24.5 kmh 30.02 in1016.6 mb 0.00 in0.0 mm 0.00 in0.0 mm 0.00 in0.0 mm
10:00 AM 61.5°F16.4°C 44.7°F7.1°C 54% 5.8 mph SW9.3 kmh SW 10.7 mph17.2 kmh 30.02 in1016.6 mb 0.00 in0.0 mm 0.00 in0.0 mm 0.00 in0.0 mm
09:45 AM 60.4°F15.8°C 44.7°F7.1°C 56% 7.6 mph SW12.2 kmh SW 15.2 mph24.5 kmh 30.02 in1016.6 mb 0.00 in0.0 mm 0.00 in0.0 mm 0.00 in0.0 mm
09:30 AM 59.7°F15.4°C 45.8°F7.7°C 60% 5.2 mph SW8.4 kmh SW 10.7 mph17.2 kmh 30.02 in1016.6 mb 0.00 in0.0 mm 0.00 in0.0 mm 0.00 in0.0 mm
09:15 AM 59.4°F15.2°C 45.9°F7.7°C 61% 5.9 mph SW9.5 kmh SW 9.8 mph15.8 kmh 30.03 in1016.9 mb 0.00 in0.0 mm 0.00 in0.0 mm 0.00 in0.0 mm
09:00 AM 58.5°F14.7°C 45.9°F7.7°C 63% 5.6 mph SW9.0 kmh SW 9.2 mph14.8 kmh 30.03 in1016.9 mb 0.00 in0.0 mm 0.00 in0.0 mm 0.00 in0.0 mm
08:45 AM 57.6°F14.2°C 45.5°F7.5°C 64% 6.0 mph WSW9.7 kmh WSW 10.7 mph17.2 kmh 30.03 in1016.9 mb 0.00 in0.0 mm 0.00 in0.0 mm 0.00 in0.0 mm
08:30 AM 56.8°F13.8°C 45.2°F7.3°C 65% 5.8 mph WSW9.3 kmh WSW 11.4 mph18.3 kmh 30.03 in1016.9 mb 0.00 in0.0 mm 0.00 in0.0 mm 0.00 in0.0 mm
08:15 AM 56.3°F13.5°C 46.3°F7.9°C 69% 6.5 mph SW10.5 kmh SW 12.1 mph19.5 kmh 30.03 in1016.9 mb 0.00 in0.0 mm 0.00 in0.0 mm 0.00 in0.0 mm
08:00 AM 55.2°F12.9°C 46.0°F7.8°C 71% 6.0 mph SW9.7 kmh SW 9.8 mph15.8 kmh 30.03 in1016.9 mb 0.00 in0.0 mm 0.00 in0.0 mm 0.00 in0.0 mm
07:45 AM 54.3°F12.4°C 46.6°F8.1°C 75% 5.0 mph SW8.0 kmh SW 9.8 mph15.8 kmh 30.03 in1016.9 mb 0.00 in0.0 mm 0.00 in0.0 mm 0.00 in0.0 mm
07:30 AM 54.0°F12.2°C 46.9°F8.3°C 77% 4.7 mph WSW7.6 kmh WSW 8.3 mph13.4 kmh 30.02 in1016.6 mb 0.00 in0.0 mm 0.00 in0.0 mm 0.00 in0.0 mm
07:15 AM 53.6°F12.0°C 46.9°F8.3°C 78% 4.8 mph SW7.7 kmh SW 9.8 mph15.8 kmh 30.02 in1016.6 mb 0.00 in0.0 mm 0.00 in0.0 mm 0.00 in0.0 mm
07:00 AM 52.9°F11.6°C 46.9°F8.3°C 80% 4.6 mph WSW7.4 kmh WSW 8.3 mph13.4 kmh 30.02 in1016.6 mb 0.00 in0.0 mm 0.00 in0.0 mm 0.00 in0.0 mm
06:45 AM 52.2°F11.2°C 46.5°F8.1°C 81% 3.5 mph SW5.6 kmh SW 7.6 mph12.2 kmh 30.02 in1016.6 mb 0.00 in0.0 mm 0.00 in0.0 mm 0.00 in0.0 mm
06:30 AM 51.3°F10.7°C 46.0°F7.8°C 82% 4.8 mph SW7.7 kmh SW 9.8 mph15.8 kmh 30.02 in1016.6 mb 0.00 in0.0 mm 0.00 in0.0 mm 0.00 in0.0 mm
06:15 AM 50.2°F10.1°C 44.9°F7.2°C 82% 3.7 mph SSW6.0 kmh SSW 7.6 mph12.2 kmh 30.02 in1016.6 mb 0.00 in0.0 mm 0.00 in0.0 mm 0.00 in0.0 mm
06:00 AM 50.0°F10.0°C 44.4°F6.9°C 81% 2.8 mph SW4.5 kmh SW 5.4 mph8.7 kmh 30.03 in1016.9 mb 0.00 in0.0 mm 0.00 in0.0 mm 0.00 in0.0 mm
05:45 AM 50.0°F10.0°C 44.1°F6.7°C 80% 3.0 mph SW4.8 kmh SW 5.4 mph8.7 kmh 30.03 in1016.9 mb 0.00 in0.0 mm 0.00 in0.0 mm 0.00 in0.0 mm
05:30 AM 50.2°F10.1°C 43.9°F6.6°C 79% 3.6 mph SW5.8 kmh SW 6.0 mph9.7 kmh 30.03 in1016.9 mb 0.00 in0.0 mm 0.00 in0.0 mm 0.00 in0.0 mm
05:15 AM 50.2°F10.1°C 43.9°F6.6°C 79% 3.4 mph SW5.5 kmh SW 5.4 mph8.7 kmh 30.03 in1016.9 mb 0.00 in0.0 mm 0.00 in0.0 mm 0.00 in0.0 mm
05:00 AM 50.0°F10.0°C 44.1°F6.7°C 80% 3.3 mph SW5.3 kmh SW 6.0 mph9.7 kmh 30.02 in1016.6 mb 0.00 in0.0 mm 0.00 in0.0 mm 0.00 in0.0 mm
04:45 AM 49.5°F9.7°C 43.5°F6.4°C 80% 2.0 mph SW3.2 kmh SW 4.5 mph7.2 kmh 30.03 in1016.9 mb 0.00 in0.0 mm 0.00 in0.0 mm 0.00 in0.0 mm
04:30 AM 49.5°F9.7°C 43.2°F6.2°C 79% 1.7 mph WSW2.7 kmh WSW 3.8 mph6.1 kmh 30.04 in1017.3 mb 0.00 in0.0 mm 0.00 in0.0 mm 0.00 in0.0 mm
04:15 AM 49.6°F9.8°C 43.1°F6.2°C 78% 2.1 mph SW3.4 kmh SW 4.5 mph7.2 kmh 30.04 in1017.3 mb 0.00 in0.0 mm 0.00 in0.0 mm 0.00 in0.0 mm
04:00 AM 50.2°F10.1°C 43.6°F6.4°C 78% 0.4 mph SSW0.6 kmh SSW 1.6 mph2.6 kmh 30.04 in1017.3 mb 0.00 in0.0 mm 0.00 in0.0 mm 0.00 in0.0 mm
03:45 AM 50.7°F10.4°C 44.1°F6.7°C 78% 0.9 mph SW1.4 kmh SW 3.1 mph5.0 kmh 30.04 in1017.3 mb 0.00 in0.0 mm 0.00 in0.0 mm 0.00 in0.0 mm
03:30 AM 51.1°F10.6°C 44.5°F6.9°C 78% 1.9 mph SW3.1 kmh SW 3.8 mph6.1 kmh 30.05 in1017.6 mb 0.00 in0.0 mm 0.00 in0.0 mm 0.00 in0.0 mm
03:15 AM 51.4°F10.8°C 44.5°F6.9°C 77% 1.7 mph SW2.7 kmh SW 3.8 mph6.1 kmh 30.05 in1017.6 mb 0.00 in0.0 mm 0.00 in0.0 mm 0.00 in0.0 mm
03:00 AM 52.0°F11.1°C 45.0°F7.2°C 77% 1.9 mph SW3.1 kmh SW 3.8 mph6.1 kmh 30.05 in1017.6 mb 0.00 in0.0 mm 0.00 in0.0 mm 0.00 in0.0 mm
02:45 AM 52.3°F11.3°C 45.0°F7.2°C 76% 2.8 mph SW4.5 kmh SW 4.5 mph7.2 kmh 30.06 in1017.9 mb 0.00 in0.0 mm 0.00 in0.0 mm 0.00 in0.0 mm
02:30 AM 52.3°F11.3°C 45.0°F7.2°C 76% 2.1 mph SW3.4 kmh SW 6.0 mph9.7 kmh 30.06 in1017.9 mb 0.00 in0.0 mm 0.00 in0.0 mm 0.00 in0.0 mm
02:15 AM 52.2°F11.2°C 44.5°F6.9°C 75% 3.1 mph SW5.0 kmh SW 4.5 mph7.2 kmh 30.07 in1018.3 mb 0.00 in0.0 mm 0.00 in0.0 mm 0.00 in0.0 mm
02:00 AM 52.2°F11.2°C 44.5°F6.9°C 75% 2.1 mph SW3.4 kmh SW 3.8 mph6.1 kmh 30.07 in1018.3 mb 0.00 in0.0 mm 0.00 in0.0 mm 0.00 in0.0 mm
01:45 AM 52.2°F11.2°C 44.5°F6.9°C 75% 2.3 mph SW3.7 kmh SW 4.5 mph7.2 kmh 30.07 in1018.3 mb 0.00 in0.0 mm 0.00 in0.0 mm 0.00 in0.0 mm
01:30 AM 52.3°F11.3°C 44.6°F7.0°C 75% 2.2 mph SW3.5 kmh SW 4.5 mph7.2 kmh 30.07 in1018.3 mb 0.00 in0.0 mm 0.00 in0.0 mm 0.00 in0.0 mm
01:15 AM 52.2°F11.2°C 44.5°F6.9°C 75% 2.6 mph SW4.2 kmh SW 4.5 mph7.2 kmh 30.07 in1018.3 mb 0.00 in0.0 mm 0.00 in0.0 mm 0.00 in0.0 mm
01:00 AM 52.2°F11.2°C 44.8°F7.1°C 76% 2.9 mph SW4.7 kmh SW 5.4 mph8.7 kmh 30.08 in1018.6 mb 0.00 in0.0 mm 0.00 in0.0 mm 0.00 in0.0 mm
12:45 AM 52.2°F11.2°C 44.8°F7.1°C 76% 2.9 mph SW4.7 kmh SW 6.9 mph11.1 kmh 30.09 in1019.0 mb 0.00 in0.0 mm 0.00 in0.0 mm 0.00 in0.0 mm
12:30 AM 52.2°F11.2°C 44.8°F7.1°C 76% 3.4 mph SW5.5 kmh SW 6.0 mph9.7 kmh 30.08 in1018.6 mb 0.00 in0.0 mm 0.00 in0.0 mm 0.00 in0.0 mm
12:15 AM 52.0°F11.1°C 45.0°F7.2°C 77% 2.6 mph SW4.2 kmh SW 6.0 mph9.7 kmh 30.08 in1018.6 mb 0.00 in0.0 mm 0.00 in0.0 mm 0.00 in0.0 mm
12:00 AM 51.8°F11.0°C 45.2°F7.3°C 78% 2.1 mph SW3.4 kmh SW 4.5 mph7.2 kmh 30.09 in1019.0 mb 0.00 in0.0 mm 0.00 in0.0 mm 0.00 in0.0 mm